Abilene Regional Airport
KABI : now visible

Airfield :











YOU CAN JOIN US ON...

 
LOGIN :

Register | Disclaimer

   EN    FR    IT 

 









Legend :    VFR   Marginal VFR   IFR   Intensive IFR   Very Intensive IFR
Visi :
Ceiling :
>= 8 km
>= 3000ft
5 to 8 km
1000 to 3000 ft
1500m to 5 km
500 to 1000 ft
800 to 1500m
200 to 500 ft
< 800m
< 200 ft
Symbols :   Thunderstorms  Fog  Heavy snow  Heavy precipitations  Wind > 20 kt






- Airport Elevation : 1791 ft


KABI - Abilene Regional

CURRENT METAR :
  • 262352Z 01016G25KT 6SM BR OVC006 M01/M01 A3017 RMK AO2 UPE2255B13E48 SLP221 P0000 60002 T10061011 10017 21006 53002 $

EXPIRED METARs :
  • 262323Z 01015G22KT 2 1/2SM UP BR OVC007 00/M01 A3016 RMK AO2 UPE2255B13 CIG 005V012 P0000 T00001006 $
  • 262252Z 36017G26KT 5SM UP BR BKN006 OVC015 00/M01 A3016 RMK AO2 PK WND 01026/2252 UPB39SNE39 SLP219 P0001 T00001006 $
  • 262250Z 36015G24KT 5SM UP BR BKN006 OVC015 00/M01 A3016 RMK AO2 UPB39SNE39 P0001 $
  • 262229Z 35018G24KT 2SM -SN BR BKN006 BKN011 OVC017 00/M01 A3016 RMK AO2 P0000 T00001011 $
  • 262152Z 36014G21KT 1 3/4SM -SN BR BKN006 OVC010 01/00 A3016 RMK AO2 UPE08B25E47RAB2057E00B18E25SNB08E18B26E36B47 SLP218 P0000 T00060000 $
  • 262136Z 01017G24KT 2 1/2SM UP BR BKN006 OVC010 01/M01 A3016 RMK AO2 UPE08B25RAB2057E00B18E25SNB08E18B26E36 P0000 T00061006 $

TAF KABI
Valid from the 27 at 00:00 until the 28 at 00:00 UTC


262320Z 2700/2724 36018G25KT 4SM -FZDZPL OVC007
FM270300 01014G21KT 2SM -FZDZPL BR OVC004
FM270700 01015G21KT 2SM FZRAPL OVC004
FM271700 01012KT 2SM -FZRAPL BR OVC004
KZFW FIR / North America



MET'MAP, your aeronautical weather chart ! - Copyright ORBIFLY December 2007 - Disclaimer

ORBIFLY MET'MAP TEAM :

Programming & Development : Alexandra Zaïnal
Concept & original design : Baudouin d'Aumeries
Assistance for programming : Marc-Olivier Méhu
Technical & hardware support : Manuel Goepfert

Contact : metmap@orbifly.com




SOURCES & CREDITS :

   NOAA       Earth
Advisory